sensor_id;sensor_type;location;lat;lon;timestamp;temperature;humidity
30063;DHT22;16889;67.864;24.990;2022-12-08T00:01:24;-6.10;99.90
30063;DHT22;16889;67.864;24.990;2022-12-08T00:06:47;-6.20;99.90
30063;DHT22;16889;67.864;24.990;2022-12-08T00:12:03;-6.20;99.90
30063;DHT22;16889;67.864;24.990;2022-12-08T00:16:49;-6.20;99.90
30063;DHT22;16889;67.864;24.990;2022-12-08T00:21:35;-6.30;99.90
30063;DHT22;16889;67.864;24.990;2022-12-08T00:26:22;-6.30;99.90
30063;DHT22;16889;67.864;24.990;2022-12-08T00:31:10;-6.20;99.90
30063;DHT22;16889;67.864;24.990;2022-12-08T00:35:57;-6.30;99.90
30063;DHT22;16889;67.864;24.990;2022-12-08T00:40:44;-6.20;99.90
30063;DHT22;16889;67.864;24.990;2022-12-08T00:45:30;-6.20;99.90
30063;DHT22;16889;67.864;24.990;2022-12-08T00:50:16;-6.30;99.90
30063;DHT22;16889;67.864;24.990;2022-12-08T00:55:03;-6.20;99.90
30063;DHT22;16889;67.864;24.990;2022-12-08T00:59:50;-6.30;99.90
30063;DHT22;16889;67.864;24.990;2022-12-08T01:04:38;-6.20;99.90
30063;DHT22;16889;67.864;24.990;2022-12-08T01:09:24;-6.20;99.90
30063;DHT22;16889;67.864;24.990;2022-12-08T01:14:11;-6.20;99.90
30063;DHT22;16889;67.864;24.990;2022-12-08T01:18:58;-6.20;99.90
30063;DHT22;16889;67.864;24.990;2022-12-08T01:23:44;-6.10;99.90
30063;DHT22;16889;67.864;24.990;2022-12-08T01:28:31;-6.10;99.90
30063;DHT22;16889;67.864;24.990;2022-12-08T01:33:17;-6.20;99.90
30063;DHT22;16889;67.864;24.990;2022-12-08T01:38:03;-6.10;99.90
30063;DHT22;16889;67.864;24.990;2022-12-08T01:42:49;-6.20;99.90
30063;DHT22;16889;67.864;24.990;2022-12-08T01:47:43;-6.20;99.90
30063;DHT22;16889;67.864;24.990;2022-12-08T01:52:38;-6.30;99.90
30063;DHT22;16889;67.864;24.990;2022-12-08T01:57:34;-6.20;99.90
30063;DHT22;16889;67.864;24.990;2022-12-08T02:02:23;-6.20;99.90
30063;DHT22;16889;67.864;24.990;2022-12-08T02:07:12;-6.10;99.90
30063;DHT22;16889;67.864;24.990;2022-12-08T02:11:59;-6.20;99.90
30063;DHT22;16889;67.864;24.990;2022-12-08T02:17:48;-6.30;99.90
30063;DHT22;16889;67.864;24.990;2022-12-08T02:32:30;-6.40;99.90
30063;DHT22;16889;67.864;24.990;2022-12-08T02:37:34;-6.30;99.90
30063;DHT22;16889;67.864;24.990;2022-12-08T02:42:43;-6.30;99.90
30063;DHT22;16889;67.864;24.990;2022-12-08T02:47:31;-6.20;99.90
30063;DHT22;16889;67.864;24.990;2022-12-08T02:57:12;-6.10;99.90
30063;DHT22;16889;67.864;24.990;2022-12-08T03:07:09;-6.20;99.90
30063;DHT22;16889;67.864;24.990;2022-12-08T03:12:17;-6.10;99.90
30063;DHT22;16889;67.864;24.990;2022-12-08T03:17:06;-6.20;99.90
30063;DHT22;16889;67.864;24.990;2022-12-08T03:21:56;-6.10;99.90
30063;DHT22;16889;67.864;24.990;2022-12-08T03:27:01;-6.10;99.90
30063;DHT22;16889;67.864;24.990;2022-12-08T03:32:00;-6.20;99.90
30063;DHT22;16889;67.864;24.990;2022-12-08T03:36:47;-6.10;99.90
30063;DHT22;16889;67.864;24.990;2022-12-08T03:41:34;-6.20;99.90
30063;DHT22;16889;67.864;24.990;2022-12-08T03:46:22;-6.10;99.90
30063;DHT22;16889;67.864;24.990;2022-12-08T03:51:09;-6.20;99.90
30063;DHT22;16889;67.864;24.990;2022-12-08T03:55:55;-6.30;99.90
30063;DHT22;16889;67.864;24.990;2022-12-08T04:00:41;-6.20;99.90
30063;DHT22;16889;67.864;24.990;2022-12-08T04:05:27;-6.20;99.90
30063;DHT22;16889;67.864;24.990;2022-12-08T04:10:14;-6.10;99.90
30063;DHT22;16889;67.864;24.990;2022-12-08T04:15:00;-6.00;99.90
30063;DHT22;16889;67.864;24.990;2022-12-08T04:19:45;-6.00;99.90
30063;DHT22;16889;67.864;24.990;2022-12-08T04:24:32;-6.00;99.90
30063;DHT22;16889;67.864;24.990;2022-12-08T04:29:17;-5.90;99.90
30063;DHT22;16889;67.864;24.990;2022-12-08T04:34:03;-6.00;99.90
30063;DHT22;16889;67.864;24.990;2022-12-08T04:38:49;-6.00;99.90
30063;DHT22;16889;67.864;24.990;2022-12-08T04:43:35;-6.10;99.90
30063;DHT22;16889;67.864;24.990;2022-12-08T04:48:22;-6.10;99.90
30063;DHT22;16889;67.864;24.990;2022-12-08T04:53:09;-6.20;99.90
30063;DHT22;16889;67.864;24.990;2022-12-08T04:57:55;-6.20;99.90
30063;DHT22;16889;67.864;24.990;2022-12-08T05:02:41;-6.20;99.90
30063;DHT22;16889;67.864;24.990;2022-12-08T05:07:27;-6.30;99.90
30063;DHT22;16889;67.864;24.990;2022-12-08T05:12:13;-6.40;99.90
30063;DHT22;16889;67.864;24.990;2022-12-08T05:16:59;-6.20;99.90
30063;DHT22;16889;67.864;24.990;2022-12-08T05:21:45;-6.20;99.90
30063;DHT22;16889;67.864;24.990;2022-12-08T05:26:31;-6.30;99.90
30063;DHT22;16889;67.864;24.990;2022-12-08T05:31:17;-6.20;99.90
30063;DHT22;16889;67.864;24.990;2022-12-08T05:36:03;-6.20;99.90
30063;DHT22;16889;67.864;24.990;2022-12-08T05:40:49;-6.20;99.90
30063;DHT22;16889;67.864;24.990;2022-12-08T05:45:35;-6.10;99.90
30063;DHT22;16889;67.864;24.990;2022-12-08T05:50:20;-6.20;99.90
30063;DHT22;16889;67.864;24.990;2022-12-08T05:55:07;-6.20;99.90
30063;DHT22;16889;67.864;24.990;2022-12-08T05:59:53;-6.10;99.90
30063;DHT22;16889;67.864;24.990;2022-12-08T06:04:39;-6.00;99.90
30063;DHT22;16889;67.864;24.990;2022-12-08T06:09:25;-6.20;99.90
30063;DHT22;16889;67.864;24.990;2022-12-08T06:14:11;-6.20;99.90
30063;DHT22;16889;67.864;24.990;2022-12-08T06:18:57;-6.20;99.90
30063;DHT22;16889;67.864;24.990;2022-12-08T06:23:46;-6.10;99.90
30063;DHT22;16889;67.864;24.990;2022-12-08T06:28:33;-6.10;99.90
30063;DHT22;16889;67.864;24.990;2022-12-08T06:33:19;-6.30;99.90
30063;DHT22;16889;67.864;24.990;2022-12-08T06:38:05;-6.20;99.90
30063;DHT22;16889;67.864;24.990;2022-12-08T06:42:51;-6.20;99.90
30063;DHT22;16889;67.864;24.990;2022-12-08T06:47:37;-6.30;99.90
30063;DHT22;16889;67.864;24.990;2022-12-08T06:52:23;-6.10;99.90
30063;DHT22;16889;67.864;24.990;2022-12-08T06:57:09;-6.20;99.90
30063;DHT22;16889;67.864;24.990;2022-12-08T07:01:55;-6.20;99.90
30063;DHT22;16889;67.864;24.990;2022-12-08T07:06:41;-6.30;99.90
30063;DHT22;16889;67.864;24.990;2022-12-08T07:11:27;-6.20;99.90
30063;DHT22;16889;67.864;24.990;2022-12-08T07:16:13;-6.10;99.90
30063;DHT22;16889;67.864;24.990;2022-12-08T07:21:04;-6.00;99.90
30063;DHT22;16889;67.864;24.990;2022-12-08T07:25:50;-6.00;99.90
30063;DHT22;16889;67.864;24.990;2022-12-08T07:30:37;-6.00;99.90
30063;DHT22;16889;67.864;24.990;2022-12-08T07:35:23;-6.10;99.90
30063;DHT22;16889;67.864;24.990;2022-12-08T07:40:10;-6.10;99.90
30063;DHT22;16889;67.864;24.990;2022-12-08T07:44:56;-6.30;99.90
30063;DHT22;16889;67.864;24.990;2022-12-08T07:49:42;-6.00;99.90
30063;DHT22;16889;67.864;24.990;2022-12-08T07:54:28;-6.00;99.90
30063;DHT22;16889;67.864;24.990;2022-12-08T07:59:14;-5.90;99.90
30063;DHT22;16889;67.864;24.990;2022-12-08T08:04:01;-5.90;99.90
30063;DHT22;16889;67.864;24.990;2022-12-08T08:08:49;-6.00;99.90
30063;DHT22;16889;67.864;24.990;2022-12-08T08:13:35;-5.90;99.90
30063;DHT22;16889;67.864;24.990;2022-12-08T08:18:22;-5.90;99.90
30063;DHT22;16889;67.864;24.990;2022-12-08T08:23:08;-6.00;99.90
30063;DHT22;16889;67.864;24.990;2022-12-08T08:27:53;-6.00;99.90
30063;DHT22;16889;67.864;24.990;2022-12-08T08:32:40;-6.10;99.90
30063;DHT22;16889;67.864;24.990;2022-12-08T08:37:26;-6.00;99.90
30063;DHT22;16889;67.864;24.990;2022-12-08T08:42:12;-5.90;99.90
30063;DHT22;16889;67.864;24.990;2022-12-08T08:46:58;-6.00;99.90
30063;DHT22;16889;67.864;24.990;2022-12-08T08:51:44;-6.00;99.90
30063;DHT22;16889;67.864;24.990;2022-12-08T08:56:30;-5.90;99.90
30063;DHT22;16889;67.864;24.990;2022-12-08T09:01:22;-5.90;99.90
30063;DHT22;16889;67.864;24.990;2022-12-08T09:06:09;-5.90;99.90
30063;DHT22;16889;67.864;24.990;2022-12-08T09:10:55;-5.90;99.90
30063;DHT22;16889;67.864;24.990;2022-12-08T09:15:41;-5.90;99.90
30063;DHT22;16889;67.864;24.990;2022-12-08T09:20:27;-5.80;99.90
30063;DHT22;16889;67.864;24.990;2022-12-08T09:25:13;-5.70;99.90
30063;DHT22;16889;67.864;24.990;2022-12-08T09:29:59;-5.60;99.90
30063;DHT22;16889;67.864;24.990;2022-12-08T09:34:45;-5.40;99.90
30063;DHT22;16889;67.864;24.990;2022-12-08T09:39:31;-5.40;99.90
30063;DHT22;16889;67.864;24.990;2022-12-08T09:44:45;-5.30;99.90
30063;DHT22;16889;67.864;24.990;2022-12-08T09:49:38;-5.20;99.90
30063;DHT22;16889;67.864;24.990;2022-12-08T09:54:34;-5.20;99.90
30063;DHT22;16889;67.864;24.990;2022-12-08T09:59:23;-5.20;99.90
30063;DHT22;16889;67.864;24.990;2022-12-08T10:04:33;-5.10;99.90
30063;DHT22;16889;67.864;24.990;2022-12-08T10:19:26;-5.10;99.90
30063;DHT22;16889;67.864;24.990;2022-12-08T10:24:23;-5.00;99.90
30063;DHT22;16889;67.864;24.990;2022-12-08T10:29:13;-5.00;99.90
30063;DHT22;16889;67.864;24.990;2022-12-08T10:33:59;-4.90;99.90
30063;DHT22;16889;67.864;24.990;2022-12-08T10:38:46;-4.80;99.90
30063;DHT22;16889;67.864;24.990;2022-12-08T10:43:32;-4.90;99.90
30063;DHT22;16889;67.864;24.990;2022-12-08T10:48:26;-4.90;99.90
30063;DHT22;16889;67.864;24.990;2022-12-08T10:53:18;-4.80;99.90
30063;DHT22;16889;67.864;24.990;2022-12-08T10:58:30;-4.80;99.90
30063;DHT22;16889;67.864;24.990;2022-12-08T11:03:23;-4.80;99.90
30063;DHT22;16889;67.864;24.990;2022-12-08T11:08:11;-4.80;99.90
30063;DHT22;16889;67.864;24.990;2022-12-08T11:13:00;-4.90;99.90
30063;DHT22;16889;67.864;24.990;2022-12-08T11:17:59;-5.00;99.90
30063;DHT22;16889;67.864;24.990;2022-12-08T11:22:53;-5.00;99.90
30063;DHT22;16889;67.864;24.990;2022-12-08T11:27:42;-5.00;99.90
30063;DHT22;16889;67.864;24.990;2022-12-08T11:32:28;-5.00;99.90
30063;DHT22;16889;67.864;24.990;2022-12-08T11:37:29;-5.00;99.90
30063;DHT22;16889;67.864;24.990;2022-12-08T11:42:18;-5.00;99.90
30063;DHT22;16889;67.864;24.990;2022-12-08T11:47:29;-5.00;99.90
30063;DHT22;16889;67.864;24.990;2022-12-08T11:52:29;-5.00;99.90
30063;DHT22;16889;67.864;24.990;2022-12-08T11:57:21;-5.10;99.90
30063;DHT22;16889;67.864;24.990;2022-12-08T12:22:33;-5.10;99.90
30063;DHT22;16889;67.864;24.990;2022-12-08T12:27:39;-5.10;99.90
30063;DHT22;16889;67.864;24.990;2022-12-08T12:32:40;-5.10;99.90
30063;DHT22;16889;67.864;24.990;2022-12-08T12:37:41;-5.10;99.90
30063;DHT22;16889;67.864;24.990;2022-12-08T12:42:42;-5.20;99.90
30063;DHT22;16889;67.864;24.990;2022-12-08T13:02:16;-5.20;99.90
30063;DHT22;16889;67.864;24.990;2022-12-08T13:07:03;-5.20;99.90
30063;DHT22;16889;67.864;24.990;2022-12-08T13:11:52;-5.20;99.90
30063;DHT22;16889;67.864;24.990;2022-12-08T13:16:39;-5.20;99.90
30063;DHT22;16889;67.864;24.990;2022-12-08T13:21:35;-5.10;99.90
30063;DHT22;16889;67.864;24.990;2022-12-08T13:26:25;-5.10;99.90
30063;DHT22;16889;67.864;24.990;2022-12-08T13:31:41;-5.20;99.90
30063;DHT22;16889;67.864;24.990;2022-12-08T13:36:32;-5.20;99.90
30063;DHT22;16889;67.864;24.990;2022-12-08T13:41:23;-5.20;99.90
30063;DHT22;16889;67.864;24.990;2022-12-08T13:46:10;-5.30;99.90
30063;DHT22;16889;67.864;24.990;2022-12-08T13:51:57;-5.30;99.90
30063;DHT22;16889;67.864;24.990;2022-12-08T13:56:25;-5.30;99.90
30063;DHT22;16889;67.864;24.990;2022-12-08T14:06:02;-5.30;99.90
30063;DHT22;16889;67.864;24.990;2022-12-08T14:10:52;-5.40;99.90
30063;DHT22;16889;67.864;24.990;2022-12-08T14:15:42;-5.40;99.90
30063;DHT22;16889;67.864;24.990;2022-12-08T14:25:17;-5.40;99.90
30063;DHT22;16889;67.864;24.990;2022-12-08T14:30:07;-5.40;99.90
30063;DHT22;16889;67.864;24.990;2022-12-08T14:35:01;-5.40;99.90
30063;DHT22;16889;67.864;24.990;2022-12-08T14:39:59;-5.50;99.90
30063;DHT22;16889;67.864;24.990;2022-12-08T14:44:46;-5.50;99.90
30063;DHT22;16889;67.864;24.990;2022-12-08T14:49:34;-5.50;99.90
30063;DHT22;16889;67.864;24.990;2022-12-08T14:54:20;-5.60;99.90
30063;DHT22;16889;67.864;24.990;2022-12-08T15:08:58;-5.40;99.90
30063;DHT22;16889;67.864;24.990;2022-12-08T15:13:58;-5.40;99.90
30063;DHT22;16889;67.864;24.990;2022-12-08T15:18:44;-5.30;99.90
30063;DHT22;16889;67.864;24.990;2022-12-08T15:23:48;-5.30;99.90
30063;DHT22;16889;67.864;24.990;2022-12-08T15:28:34;-5.30;99.90
30063;DHT22;16889;67.864;24.990;2022-12-08T15:33:20;-5.40;99.90
30063;DHT22;16889;67.864;24.990;2022-12-08T15:38:15;-5.40;99.90
30063;DHT22;16889;67.864;24.990;2022-12-08T15:43:01;-5.40;99.90
30063;DHT22;16889;67.864;24.990;2022-12-08T15:47:47;-5.30;99.90
30063;DHT22;16889;67.864;24.990;2022-12-08T15:52:33;-5.30;99.90
30063;DHT22;16889;67.864;24.990;2022-12-08T15:57:25;-5.30;99.90
30063;DHT22;16889;67.864;24.990;2022-12-08T16:02:14;-5.30;99.90
30063;DHT22;16889;67.864;24.990;2022-12-08T16:07:00;-5.40;99.90
30063;DHT22;16889;67.864;24.990;2022-12-08T16:11:46;-5.40;99.90
30063;DHT22;16889;67.864;24.990;2022-12-08T16:16:50;-5.40;99.90
30063;DHT22;16889;67.864;24.990;2022-12-08T16:21:36;-5.50;99.90
30063;DHT22;16889;67.864;24.990;2022-12-08T16:26:22;-5.60;99.90
30063;DHT22;16889;67.864;24.990;2022-12-08T16:31:11;-5.50;99.90
30063;DHT22;16889;67.864;24.990;2022-12-08T16:35:58;-5.30;99.90
30063;DHT22;16889;67.864;24.990;2022-12-08T16:40:47;-5.20;99.90
30063;DHT22;16889;67.864;24.990;2022-12-08T16:45:52;-5.10;99.90
30063;DHT22;16889;67.864;24.990;2022-12-08T16:50:43;-5.00;99.90
30063;DHT22;16889;67.864;24.990;2022-12-08T16:55:30;-5.00;99.90
30063;DHT22;16889;67.864;24.990;2022-12-08T17:00:19;-4.90;99.90
30063;DHT22;16889;67.864;24.990;2022-12-08T17:05:06;-4.90;99.90
30063;DHT22;16889;67.864;24.990;2022-12-08T17:09:52;-4.90;99.90
30063;DHT22;16889;67.864;24.990;2022-12-08T17:14:37;-4.90;99.90
30063;DHT22;16889;67.864;24.990;2022-12-08T17:19:23;-4.90;99.90
30063;DHT22;16889;67.864;24.990;2022-12-08T17:24:10;-4.80;99.90
30063;DHT22;16889;67.864;24.990;2022-12-08T17:28:56;-4.80;99.90
30063;DHT22;16889;67.864;24.990;2022-12-08T17:33:42;-4.70;99.90
30063;DHT22;16889;67.864;24.990;2022-12-08T17:38:28;-4.70;99.90
30063;DHT22;16889;67.864;24.990;2022-12-08T17:43:14;-4.60;99.90
30063;DHT22;16889;67.864;24.990;2022-12-08T17:48:00;-4.60;99.90
30063;DHT22;16889;67.864;24.990;2022-12-08T17:52:49;-4.50;99.90
30063;DHT22;16889;67.864;24.990;2022-12-08T17:57:35;-4.50;99.90
30063;DHT22;16889;67.864;24.990;2022-12-08T18:02:21;-4.40;99.90
30063;DHT22;16889;67.864;24.990;2022-12-08T18:07:07;-4.40;99.90
30063;DHT22;16889;67.864;24.990;2022-12-08T18:11:53;-4.40;99.90
30063;DHT22;16889;67.864;24.990;2022-12-08T18:16:44;-4.20;99.90
30063;DHT22;16889;67.864;24.990;2022-12-08T18:21:30;-4.10;99.90
30063;DHT22;16889;67.864;24.990;2022-12-08T18:26:16;-4.20;99.90
30063;DHT22;16889;67.864;24.990;2022-12-08T18:31:07;-4.10;99.90
30063;DHT22;16889;67.864;24.990;2022-12-08T18:35:54;-4.10;99.90
30063;DHT22;16889;67.864;24.990;2022-12-08T18:40:40;-4.00;99.90
30063;DHT22;16889;67.864;24.990;2022-12-08T18:45:26;-4.00;99.90
30063;DHT22;16889;67.864;24.990;2022-12-08T18:50:12;-4.00;99.90
30063;DHT22;16889;67.864;24.990;2022-12-08T18:54:58;-3.90;99.90
30063;DHT22;16889;67.864;24.990;2022-12-08T18:59:44;-3.90;99.90
30063;DHT22;16889;67.864;24.990;2022-12-08T19:04:30;-3.90;99.90
30063;DHT22;16889;67.864;24.990;2022-12-08T19:09:16;-3.80;99.90
30063;DHT22;16889;67.864;24.990;2022-12-08T19:14:02;-3.80;99.90
30063;DHT22;16889;67.864;24.990;2022-12-08T19:18:48;-3.80;99.90
30063;DHT22;16889;67.864;24.990;2022-12-08T19:23:34;-3.90;99.90
30063;DHT22;16889;67.864;24.990;2022-12-08T19:28:20;-3.80;99.90
30063;DHT22;16889;67.864;24.990;2022-12-08T19:33:06;-3.80;99.90
30063;DHT22;16889;67.864;24.990;2022-12-08T19:37:52;-3.80;99.90
30063;DHT22;16889;67.864;24.990;2022-12-08T19:42:40;-3.70;99.90
30063;DHT22;16889;67.864;24.990;2022-12-08T19:47:44;-3.60;99.90
30063;DHT22;16889;67.864;24.990;2022-12-08T19:52:30;-3.60;99.90
30063;DHT22;16889;67.864;24.990;2022-12-08T19:57:16;-3.50;99.90
30063;DHT22;16889;67.864;24.990;2022-12-08T20:02:03;-3.50;99.90
30063;DHT22;16889;67.864;24.990;2022-12-08T20:06:50;-3.40;99.90
30063;DHT22;16889;67.864;24.990;2022-12-08T20:11:37;-3.30;99.90
30063;DHT22;16889;67.864;24.990;2022-12-08T20:16:23;-3.30;99.90
30063;DHT22;16889;67.864;24.990;2022-12-08T20:21:11;-3.20;99.90
30063;DHT22;16889;67.864;24.990;2022-12-08T20:25:58;-3.20;99.90
30063;DHT22;16889;67.864;24.990;2022-12-08T20:30:44;-3.10;99.90
30063;DHT22;16889;67.864;24.990;2022-12-08T20:35:31;-3.00;99.90
30063;DHT22;16889;67.864;24.990;2022-12-08T20:40:17;-3.00;99.90
30063;DHT22;16889;67.864;24.990;2022-12-08T20:45:04;-2.90;99.90
30063;DHT22;16889;67.864;24.990;2022-12-08T20:49:51;-2.90;99.90
30063;DHT22;16889;67.864;24.990;2022-12-08T20:54:37;-2.80;99.90
30063;DHT22;16889;67.864;24.990;2022-12-08T20:59:24;-2.80;99.90
30063;DHT22;16889;67.864;24.990;2022-12-08T21:04:11;-2.70;99.90
30063;DHT22;16889;67.864;24.990;2022-12-08T21:08:57;-2.70;99.90
30063;DHT22;16889;67.864;24.990;2022-12-08T21:13:43;-2.70;99.90
30063;DHT22;16889;67.864;24.990;2022-12-08T21:18:30;-2.60;99.90
30063;DHT22;16889;67.864;24.990;2022-12-08T21:23:16;-2.60;99.90
30063;DHT22;16889;67.864;24.990;2022-12-08T21:28:02;-2.60;99.90
30063;DHT22;16889;67.864;24.990;2022-12-08T21:32:48;-2.50;99.90
30063;DHT22;16889;67.864;24.990;2022-12-08T21:37:35;-2.50;99.90
30063;DHT22;16889;67.864;24.990;2022-12-08T21:42:21;-2.50;99.90
30063;DHT22;16889;67.864;24.990;2022-12-08T21:47:29;-2.50;99.90
30063;DHT22;16889;67.864;24.990;2022-12-08T21:52:15;-2.50;99.90
30063;DHT22;16889;67.864;24.990;2022-12-08T21:57:01;-2.40;99.90
30063;DHT22;16889;67.864;24.990;2022-12-08T22:01:47;-2.40;99.90
30063;DHT22;16889;67.864;24.990;2022-12-08T22:06:33;-2.40;99.90
30063;DHT22;16889;67.864;24.990;2022-12-08T22:11:19;-2.30;99.90
30063;DHT22;16889;67.864;24.990;2022-12-08T22:16:08;-2.30;99.90
30063;DHT22;16889;67.864;24.990;2022-12-08T22:20:54;-2.30;99.90
30063;DHT22;16889;67.864;24.990;2022-12-08T22:25:41;-2.20;99.90
30063;DHT22;16889;67.864;24.990;2022-12-08T22:30:28;-2.20;99.90
30063;DHT22;16889;67.864;24.990;2022-12-08T22:35:14;-2.20;99.90
30063;DHT22;16889;67.864;24.990;2022-12-08T22:40:00;-2.20;99.90
30063;DHT22;16889;67.864;24.990;2022-12-08T22:44:46;-2.20;99.90
30063;DHT22;16889;67.864;24.990;2022-12-08T22:49:32;-2.10;99.90
30063;DHT22;16889;67.864;24.990;2022-12-08T22:54:18;-2.10;99.90
30063;DHT22;16889;67.864;24.990;2022-12-08T22:59:07;-2.10;99.90
30063;DHT22;16889;67.864;24.990;2022-12-08T23:03:53;-2.10;99.90
30063;DHT22;16889;67.864;24.990;2022-12-08T23:08:41;-2.10;99.90
30063;DHT22;16889;67.864;24.990;2022-12-08T23:13:27;-2.10;99.90
30063;DHT22;16889;67.864;24.990;2022-12-08T23:18:16;-2.10;99.90
30063;DHT22;16889;67.864;24.990;2022-12-08T23:23:03;-2.10;99.90
30063;DHT22;16889;67.864;24.990;2022-12-08T23:27:49;-2.10;99.90
30063;DHT22;16889;67.864;24.990;2022-12-08T23:32:35;-2.20;99.90
30063;DHT22;16889;67.864;24.990;2022-12-08T23:37:21;-2.10;99.90
30063;DHT22;16889;67.864;24.990;2022-12-08T23:42:09;-2.20;99.90
30063;DHT22;16889;67.864;24.990;2022-12-08T23:46:55;-2.20;99.90
30063;DHT22;16889;67.864;24.990;2022-12-08T23:51:41;-2.20;99.90
30063;DHT22;16889;67.864;24.990;2022-12-08T23:56:27;-2.20;99.90
